Time;durP1;ratioP1;P1;durP2;ratioP2;P2;SDS_P1;SDS_P2;PMS_P1;PMS_P2;Temp;Humidity;BMP_temperature;BMP_pressure;BME280_temperature;BME280_humidity;BME280_pressure;Samples;Min_cycle;Max_cycle;Signal;HPM_P1;HPM_P2
2022/11/26 00:00:17;;;;;;;32.13;15.70;;;5.20;99.90;;;;;;4956180;28;93388;-32
2022/11/26 00:02:44;;;;;;;34.30;16.52;;;5.20;99.90;;;;;;4955889;28;93601;-32
2022/11/26 00:05:14;;;;;;;23.00;15.40;;;5.20;99.90;;;;;;4955243;28;94447;-33
2022/11/26 00:07:43;;;;;;;27.88;16.17;;;5.20;99.90;;;;;;4955624;28;94659;-33
2022/11/26 00:10:17;;;;;;;27.02;15.23;;;5.10;99.90;;;;;;4955730;28;93125;-33
2022/11/26 00:12:43;;;;;;;27.60;16.55;;;5.20;99.90;;;;;;4955694;28;94601;-31
2022/11/26 00:15:19;;;;;;;32.13;17.73;;;5.20;99.90;;;;;;4954686;28;95700;-33
2022/11/26 00:17:46;;;;;;;35.70;15.05;;;5.10;99.90;;;;;;4954990;28;96079;-34
2022/11/26 00:20:11;;;;;;;33.72;16.65;;;5.20;99.90;;;;;;4955733;28;92181;-32
2022/11/26 00:22:44;;;;;;;42.10;15.35;;;5.20;99.90;;;;;;4955368;28;94786;-33
2022/11/26 00:25:16;;;;;;;32.88;15.43;;;5.20;99.90;;;;;;4955493;28;93833;-32
2022/11/26 00:27:41;;;;;;;21.13;14.10;;;5.10;99.90;;;;;;4954869;28;94501;-32
2022/11/26 00:30:19;;;;;;;30.08;15.57;;;5.20;99.90;;;;;;4956199;28;92672;-32
2022/11/26 00:32:45;;;;;;;28.92;15.98;;;5.10;99.90;;;;;;4955363;28;91821;-34
2022/11/26 00:35:11;;;;;;;30.27;15.00;;;5.10;99.90;;;;;;4955619;28;94610;-33
2022/11/26 00:37:47;;;;;;;32.92;16.40;;;5.20;99.90;;;;;;4956213;28;95064;-32
2022/11/26 00:40:22;;;;;;;26.33;16.17;;;5.20;99.90;;;;;;4958720;28;95415;-32
2022/11/26 00:42:48;;;;;;;36.55;17.15;;;5.10;99.90;;;;;;4958652;28;92464;-33
2022/11/26 00:45:23;;;;;;;26.45;14.43;;;5.10;99.90;;;;;;4958791;28;94767;-33
2022/11/26 00:47:49;;;;;;;24.98;15.13;;;5.10;99.90;;;;;;4958542;28;94747;-34
2022/11/26 00:50:21;;;;;;;19.88;14.05;;;5.10;99.90;;;;;;4959619;28;94409;-33
2022/11/26 00:52:50;;;;;;;25.77;14.88;;;5.10;99.90;;;;;;4958270;28;93466;-34
2022/11/26 00:55:37;;;;;;;30.33;15.50;;;5.10;99.90;;;;;;4958744;28;94680;-32
2022/11/26 00:58:04;;;;;;;31.57;15.80;;;5.20;99.90;;;;;;4959502;28;94090;-34
2022/11/26 01:00:32;;;;;;;27.67;14.25;;;5.20;99.90;;;;;;4958444;28;93413;-33
2022/11/26 01:02:58;;;;;;;29.50;16.20;;;5.20;99.90;;;;;;4958703;28;94036;-32
2022/11/26 01:05:28;;;;;;;20.73;14.70;;;5.20;99.90;;;;;;4957883;28;96046;-33
2022/11/26 01:07:58;;;;;;;27.73;17.48;;;5.20;99.90;;;;;;4958137;28;95637;-32
2022/11/26 01:10:27;;;;;;;24.20;16.25;;;5.20;99.90;;;;;;4958323;28;93252;-37
2022/11/26 01:12:53;;;;;;;34.53;17.13;;;5.20;99.90;;;;;;4958553;28;93527;-35
2022/11/26 01:15:21;;;;;;;35.33;17.10;;;5.20;99.90;;;;;;4957876;28;94357;-33
2022/11/26 01:17:47;;;;;;;;;;;5.10;99.90;;;;;;4958225;28;94900;-34
2022/11/26 01:20:28;;;;;;;28.60;15.48;;;5.10;99.90;;;;;;4961630;28;92584;-33
2022/11/26 01:22:56;;;;;;;31.23;16.15;;;5.10;99.90;;;;;;4957120;28;93388;-33
2022/11/26 01:25:24;;;;;;;27.93;14.97;;;5.10;99.90;;;;;;4958350;28;94653;-33
2022/11/26 01:27:50;;;;;;;26.27;15.23;;;5.10;99.90;;;;;;4957211;28;94930;-35
2022/11/26 01:30:24;;;;;;;36.20;17.45;;;5.10;99.90;;;;;;4957456;28;95290;-33
2022/11/26 01:32:50;;;;;;;24.85;14.60;;;5.10;99.90;;;;;;4958109;28;92341;-32
2022/11/26 01:35:17;;;;;;;28.60;16.00;;;5.10;99.90;;;;;;4957411;28;94749;-33
2022/11/26 01:37:44;;;;;;;29.10;15.77;;;5.10;99.90;;;;;;4957176;28;94081;-32
2022/11/26 01:40:29;;;;;;;32.60;16.17;;;5.10;99.90;;;;;;4958842;28;92111;-32
2022/11/26 01:42:59;;;;;;;34.17;16.60;;;5.10;99.90;;;;;;4972877;28;93362;-32
2022/11/26 01:45:25;;;;;;;30.85;17.10;;;5.10;99.90;;;;;;4957982;28;94882;-33
2022/11/26 01:47:51;;;;;;;31.40;16.63;;;5.10;99.90;;;;;;4957238;28;94657;-32
2022/11/26 01:50:32;;;;;;;20.92;16.23;;;5.10;99.90;;;;;;4958595;28;93743;-33
2022/11/26 01:53:08;;;;;;;27.73;16.92;;;5.10;99.90;;;;;;4957779;28;94945;-32
2022/11/26 01:55:58;;;;;;;20.80;14.07;;;5.10;99.90;;;;;;4956964;28;95857;-33
2022/11/26 01:58:30;;;;;;;30.10;15.52;;;5.00;99.90;;;;;;4957212;28;95061;-34
2022/11/26 02:00:56;;;;;;;23.30;14.57;;;5.00;99.90;;;;;;4958144;28;93510;-34
2022/11/26 02:03:23;;;;;;;28.05;14.43;;;5.00;99.90;;;;;;4957690;28;92496;-34
2022/11/26 02:06:03;;;;;;;36.35;17.08;;;4.90;99.90;;;;;;4957857;28;95686;-33
2022/11/26 02:08:31;;;;;;;26.75;15.38;;;5.00;99.90;;;;;;4957556;28;94822;-34
2022/11/26 02:10:57;;;;;;;32.63;15.27;;;4.90;99.90;;;;;;4957793;28;93293;-34
2022/11/26 02:13:24;;;;;;;34.28;18.02;;;4.90;99.90;;;;;;4957188;28;93198;-34
2022/11/26 02:16:02;;;;;;;35.97;18.52;;;4.90;99.90;;;;;;4957560;28;94962;-33
2022/11/26 02:18:36;;;;;;;34.20;19.25;;;4.90;99.90;;;;;;4957087;28;95285;-32
2022/11/26 02:21:04;;;;;;;29.65;16.88;;;4.90;99.90;;;;;;4956939;28;94146;-33
2022/11/26 02:23:48;;;;;;;34.03;18.60;;;4.90;99.90;;;;;;4956778;28;93813;-32
2022/11/26 02:26:32;;;;;;;29.42;16.80;;;4.80;99.90;;;;;;4957142;28;94745;-32
2022/11/26 02:29:05;;;;;;;27.67;18.80;;;4.90;99.90;;;;;;4956670;28;93615;-35
2022/11/26 02:31:55;;;;;;;22.52;16.23;;;4.90;99.90;;;;;;4957034;28;93389;-33
2022/11/26 02:34:39;;;;;;;28.98;16.30;;;4.80;99.90;;;;;;4957013;28;94749;-32
2022/11/26 02:37:24;;;;;;;31.17;17.33;;;4.80;99.90;;;;;;4956788;28;95426;-32
2022/11/26 02:39:50;;;;;;;34.90;17.63;;;4.80;99.90;;;;;;4946138;28;94685;-33
2022/11/26 02:42:34;;;;;;;31.45;17.42;;;4.80;99.90;;;;;;4956904;28;93052;-34
2022/11/26 02:45:20;;;;;;;29.38;18.83;;;4.70;99.90;;;;;;4956894;28;93019;-35
2022/11/26 02:47:50;;;;;;;31.27;17.02;;;4.70;99.90;;;;;;4956168;28;95531;-33
2022/11/26 02:50:31;;;;;;;26.85;17.60;;;4.70;99.90;;;;;;4957355;28;95274;-33
2022/11/26 02:52:58;;;;;;;34.45;18.02;;;4.70;99.90;;;;;;4956868;28;93780;-34
2022/11/26 02:55:28;;;;;;;34.05;18.92;;;4.70;99.90;;;;;;4956910;28;93297;-36
2022/11/26 02:57:54;;;;;;;29.42;19.73;;;4.70;99.90;;;;;;4957261;28;95326;-32
2022/11/26 03:00:20;;;;;;;31.02;17.98;;;4.60;99.90;;;;;;4955909;28;94716;-35
2022/11/26 03:03:02;;;;;;;22.48;18.42;;;4.60;99.90;;;;;;4956649;28;93196;-33
2022/11/26 03:05:32;;;;;;;32.08;17.10;;;4.60;99.90;;;;;;4956174;28;93391;-32
2022/11/26 03:07:59;;;;;;;27.73;19.77;;;4.60;99.90;;;;;;4956385;28;94791;-35
2022/11/26 03:10:27;;;;;;;27.00;20.45;;;4.60;99.90;;;;;;4955857;28;95190;-33
2022/11/26 03:12:53;;;;;;;31.70;20.38;;;4.50;99.90;;;;;;4955872;28;94046;-33
2022/11/26 03:15:18;;;;;;;27.55;19.63;;;4.50;99.90;;;;;;4956869;28;93793;-33
2022/11/26 03:17:44;;;;;;;29.48;19.65;;;4.50;99.90;;;;;;4956231;28;94773;-33
2022/11/26 03:20:09;;;;;;;31.05;20.23;;;4.50;99.90;;;;;;4956792;28;94712;-33
2022/11/26 03:22:35;;;;;;;28.17;19.10;;;4.50;99.90;;;;;;4956222;28;93206;-33
2022/11/26 03:25:01;;;;;;;23.00;19.65;;;4.60;99.90;;;;;;4956523;28;94622;-33
2022/11/26 03:27:26;;;;;;;34.35;20.55;;;4.50;99.90;;;;;;4955519;28;94592;-32
2022/11/26 03:29:52;;;;;;;38.03;22.45;;;4.50;99.90;;;;;;4956981;28;94460;-34
2022/11/26 03:32:18;;;;;;;38.65;22.08;;;4.60;99.90;;;;;;4956157;28;94180;-33
2022/11/26 03:34:43;;;;;;;33.90;20.73;;;4.60;99.90;;;;;;4970484;28;94431;-35
2022/11/26 03:37:09;;;;;;;30.13;19.83;;;4.60;99.90;;;;;;4955701;28;95978;-33
2022/11/26 03:39:35;;;;;;;37.40;21.35;;;4.60;99.90;;;;;;4955805;28;95449;-33
2022/11/26 03:42:00;;;;;;;39.03;21.42;;;4.60;99.90;;;;;;4957053;28;94388;-34
2022/11/26 03:44:26;;;;;;;26.10;20.42;;;4.70;99.90;;;;;;4955586;28;94214;-32
2022/11/26 03:46:51;;;;;;;39.47;22.27;;;4.60;99.90;;;;;;4955781;28;94717;-36
2022/11/26 03:49:17;;;;;;;41.22;23.63;;;4.70;99.90;;;;;;4956237;28;94268;-33
2022/11/26 03:51:42;;;;;;;25.70;19.08;;;4.70;99.90;;;;;;4955798;28;93826;-36
2022/11/26 03:54:08;;;;;;;37.25;22.42;;;4.70;99.90;;;;;;4956729;28;93048;-34
2022/11/26 03:56:34;;;;;;;44.70;23.52;;;4.70;99.90;;;;;;4955321;28;95168;-32
2022/11/26 03:58:59;;;;;;;31.42;22.90;;;4.60;99.90;;;;;;4955659;28;94975;-33
2022/11/26 04:01:25;;;;;;;34.97;23.15;;;4.60;99.90;;;;;;4955305;28;93600;-31
2022/11/26 04:03:50;;;;;;;40.78;22.52;;;4.70;99.90;;;;;;4955850;28;94645;-32
2022/11/26 04:06:16;;;;;;;39.05;25.20;;;4.60;99.90;;;;;;4956234;28;94952;-34
2022/11/26 04:08:42;;;;;;;30.15;22.27;;;4.60;99.90;;;;;;4955244;28;93918;-36
2022/11/26 04:11:07;;;;;;;35.60;24.73;;;4.60;99.90;;;;;;4956273;28;93230;-32
2022/11/26 04:13:33;;;;;;;39.65;22.02;;;4.60;99.90;;;;;;4958046;28;94374;-32
2022/11/26 04:15:59;;;;;;;30.90;21.67;;;4.60;99.90;;;;;;4959048;28;94276;-34
2022/11/26 04:18:25;;;;;;;38.40;21.65;;;4.60;99.90;;;;;;4958764;28;94717;-34
2022/11/26 04:20:50;;;;;;;35.55;23.30;;;4.60;99.90;;;;;;4959682;28;93131;-34
2022/11/26 04:23:16;;;;;;;34.90;21.65;;;4.60;99.90;;;;;;4958545;28;93539;-34
2022/11/26 04:25:41;;;;;;;33.38;23.58;;;4.60;99.90;;;;;;4956725;28;95648;-33
2022/11/26 04:28:07;;;;;;;40.05;23.85;;;4.60;99.90;;;;;;4959535;28;95057;-33
2022/11/26 04:30:32;;;;;;;24.55;20.63;;;4.60;99.90;;;;;;4958622;28;93424;-33
2022/11/26 04:32:58;;;;;;;24.90;19.50;;;4.60;99.90;;;;;;4958892;28;94759;-35
2022/11/26 04:35:23;;;;;;;41.17;22.33;;;4.60;99.90;;;;;;4958151;28;94271;-34
2022/11/26 04:37:49;;;;;;;34.03;23.05;;;4.50;99.90;;;;;;4959173;28;93504;-35
2022/11/26 04:40:15;;;;;;;55.63;23.08;;;4.50;99.90;;;;;;4959109;28;94688;-33
2022/11/26 04:42:40;;;;;;;47.92;23.08;;;4.60;99.90;;;;;;4958804;28;93307;-35
2022/11/26 04:45:06;;;;;;;65.57;24.65;;;4.60;99.90;;;;;;4959380;28;95226;-32
2022/11/26 04:47:32;;;;;;;67.40;26.30;;;4.60;99.90;;;;;;4957828;28;94824;-35
2022/11/26 04:49:57;;;;;;;57.65;23.20;;;4.60;99.90;;;;;;4958652;28;93659;-32
2022/11/26 04:52:23;;;;;;;36.83;22.50;;;4.60;99.90;;;;;;4958433;28;92340;-37
2022/11/26 04:54:49;;;;;;;60.65;27.05;;;4.60;99.90;;;;;;4958384;28;95133;-34
2022/11/26 04:57:14;;;;;;;38.22;21.02;;;4.60;99.90;;;;;;4958517;28;96069;-31
2022/11/26 04:59:40;;;;;;;86.43;26.98;;;4.60;99.90;;;;;;4957849;28;94084;-33
2022/11/26 05:02:05;;;;;;;66.88;22.30;;;4.60;99.90;;;;;;4959001;28;92622;-35
2022/11/26 05:04:31;;;;;;;50.30;23.35;;;4.50;99.90;;;;;;4957532;28;93733;-34
2022/11/26 05:06:57;;;;;;;47.30;23.95;;;4.60;99.90;;;;;;4959037;28;93276;-35
2022/11/26 05:09:22;;;;;;;45.00;22.13;;;4.60;99.90;;;;;;4958822;28;94030;-34
2022/11/26 05:11:48;;;;;;;66.90;23.23;;;4.60;99.90;;;;;;4957051;28;93203;-33
2022/11/26 05:14:13;;;;;;;49.10;22.73;;;4.60;99.90;;;;;;4957869;28;96730;-33
2022/11/26 05:16:39;;;;;;;21.75;18.90;;;4.50;99.90;;;;;;4957101;28;94713;-33
2022/11/26 05:19:05;;;;;;;33.83;20.20;;;4.60;99.90;;;;;;4958702;28;94399;-35
2022/11/26 05:21:30;;;;;;;49.70;19.92;;;4.60;99.90;;;;;;4957718;28;92141;-34
2022/11/26 05:23:56;;;;;;;54.53;23.05;;;4.60;99.90;;;;;;4957726;28;94513;-34
2022/11/26 05:26:21;;;;;;;34.42;19.65;;;4.60;99.90;;;;;;4958185;28;94870;-34
2022/11/26 05:28:47;;;;;;;26.13;20.63;;;4.50;99.90;;;;;;4957625;28;93434;-33
2022/11/26 05:31:12;;;;;;;32.20;20.23;;;4.50;99.90;;;;;;4958378;28;92697;-34
2022/11/26 05:33:38;;;;;;;58.15;23.85;;;4.50;99.90;;;;;;4957831;28;93697;-34
2022/11/26 05:36:04;;;;;;;36.58;19.55;;;4.50;99.90;;;;;;4958202;28;94876;-32
2022/11/26 05:38:29;;;;;;;33.55;18.98;;;4.50;99.90;;;;;;4957123;28;94619;-34
2022/11/26 05:40:55;;;;;;;58.15;23.15;;;4.50;99.90;;;;;;4958048;28;93133;-33
2022/11/26 05:43:21;;;;;;;41.15;20.92;;;4.50;99.90;;;;;;4957311;28;94595;-34
2022/11/26 05:45:47;;;;;;;49.53;22.08;;;4.50;99.90;;;;;;4957042;28;94549;-32
2022/11/26 05:48:12;;;;;;;81.38;24.60;;;4.60;99.90;;;;;;4959028;28;93143;-33
2022/11/26 05:50:38;;;;;;;64.43;23.30;;;4.60;99.90;;;;;;4957089;28;95133;-32
2022/11/26 05:53:04;;;;;;;43.08;24.13;;;4.60;99.90;;;;;;4957964;28;94648;-33
2022/11/26 05:55:30;;;;;;;32.00;19.38;;;4.60;99.90;;;;;;4957419;28;94795;-33
2022/11/26 05:57:55;;;;;;;61.78;24.92;;;4.60;99.90;;;;;;4957901;28;93887;-34
2022/11/26 06:00:21;;;;;;;75.72;25.35;;;4.70;99.90;;;;;;4958010;28;93967;-33
2022/11/26 06:02:47;;;;;;;51.13;23.13;;;4.60;99.90;;;;;;4956649;28;95605;-34
2022/11/26 06:05:12;;;;;;;66.38;27.13;;;4.60;99.90;;;;;;4957625;28;95134;-32
2022/11/26 06:07:38;;;;;;;30.83;19.58;;;4.60;99.90;;;;;;4957404;28;94518;-32
2022/11/26 06:10:04;;;;;;;49.45;22.13;;;4.60;99.90;;;;;;4957597;28;92267;-33
2022/11/26 06:12:30;;;;;;;57.38;22.08;;;4.60;99.90;;;;;;4957422;28;94658;-33
2022/11/26 06:14:55;;;;;;;47.90;21.70;;;4.50;99.90;;;;;;4957121;28;94784;-38
2022/11/26 06:17:21;;;;;;;46.38;20.95;;;4.50;99.90;;;;;;4957558;28;92513;-33
2022/11/26 06:19:47;;;;;;;54.22;23.23;;;4.50;99.90;;;;;;4956812;28;93378;-33
2022/11/26 06:22:12;;;;;;;72.13;23.13;;;4.50;99.90;;;;;;4957457;28;94405;-33
2022/11/26 06:24:38;;;;;;;50.88;20.45;;;4.50;99.90;;;;;;4956893;28;94586;-33
2022/11/26 06:27:03;;;;;;;75.97;24.95;;;4.50;99.90;;;;;;4957411;28;93889;-35
2022/11/26 06:29:29;;;;;;;45.45;20.98;;;4.50;99.90;;;;;;4956727;28;94672;-34
2022/11/26 06:31:55;;;;;;;61.60;22.88;;;4.50;99.90;;;;;;4956536;28;94897;-36
2022/11/26 06:34:20;;;;;;;78.85;23.27;;;4.50;99.90;;;;;;4954771;28;94658;-32
2022/11/26 06:36:46;;;;;;;66.32;24.20;;;4.50;99.90;;;;;;4957206;28;94542;-33
2022/11/26 06:39:12;;;;;;;58.83;24.50;;;4.50;99.90;;;;;;4957405;28;94361;-33
2022/11/26 06:41:37;;;;;;;67.45;25.88;;;4.50;99.90;;;;;;4956465;28;94597;-32
2022/11/26 06:44:03;;;;;;;80.22;24.23;;;4.50;99.90;;;;;;4956774;28;94682;-35
2022/11/26 06:46:29;;;;;;;59.75;22.88;;;4.50;99.90;;;;;;4956707;28;94085;-35
2022/11/26 06:48:59;;;;;;;77.28;23.90;;;4.50;99.90;;;;;;4956863;28;92711;-34
2022/11/26 06:51:26;;;;;;;41.33;23.05;;;4.50;99.90;;;;;;4955340;28;96757;-35
2022/11/26 06:53:52;;;;;;;59.47;22.58;;;4.50;99.90;;;;;;4956701;28;95088;-36
2022/11/26 06:56:18;;;;;;;54.72;21.13;;;4.50;99.90;;;;;;4957078;28;92993;-32
2022/11/26 06:58:45;;;;;;;70.10;20.83;;;4.50;99.90;;;;;;4956050;28;92811;-34
2022/11/26 07:01:15;;;;;;;96.72;25.17;;;4.50;99.90;;;;;;4957108;28;94709;-33
2022/11/26 07:03:40;;;;;;;68.65;21.60;;;4.40;99.90;;;;;;4956479;28;95667;-35
2022/11/26 07:06:22;;;;;;;84.82;23.42;;;4.40;99.90;;;;;;4956461;28;92096;-33
2022/11/26 07:08:50;;;;;;;45.90;21.30;;;4.40;99.90;;;;;;4956748;28;93580;-33
2022/11/26 07:11:16;;;;;;;51.83;21.17;;;4.40;99.90;;;;;;4956542;28;94832;-33
2022/11/26 07:13:42;;;;;;;91.40;27.75;;;4.40;99.90;;;;;;4956166;28;94322;-34
2022/11/26 07:16:08;;;;;;;46.67;21.60;;;4.40;99.90;;;;;;4956280;28;95202;-32
2022/11/26 07:18:34;;;;;;;83.28;23.90;;;4.30;99.90;;;;;;4955787;28;93378;-34
2022/11/26 07:21:11;;;;;;;54.03;21.55;;;4.30;99.90;;;;;;4955990;28;93615;-34
2022/11/26 07:23:37;;;;;;;59.67;23.38;;;4.30;99.90;;;;;;4956170;28;93503;-33
2022/11/26 07:26:04;;;;;;;57.03;21.05;;;4.30;99.90;;;;;;4956769;28;92750;-35
2022/11/26 07:28:29;;;;;;;46.60;19.80;;;4.30;99.90;;;;;;4955637;28;94236;-34
2022/11/26 07:31:00;;;;;;;79.97;23.65;;;4.30;99.90;;;;;;4956528;28;94335;-36
2022/11/26 07:33:25;;;;;;;35.45;19.15;;;4.20;99.90;;;;;;4956573;28;94546;-33
2022/11/26 07:35:51;;;;;;;67.03;21.85;;;4.20;99.90;;;;;;4956083;28;92473;-32
2022/11/26 07:38:16;;;;;;;59.90;21.50;;;4.20;99.90;;;;;;4957053;28;94274;-33
2022/11/26 07:40:42;;;;;;;50.35;22.30;;;4.20;99.90;;;;;;4955063;28;95636;-32
2022/11/26 07:43:07;;;;;;;42.78;19.88;;;4.20;99.90;;;;;;4956199;28;95921;-33
2022/11/26 07:45:36;;;;;;;47.10;21.30;;;4.20;99.90;;;;;;4956016;28;92885;-33
2022/11/26 07:48:03;;;;;;;46.30;20.48;;;4.20;99.90;;;;;;4956429;28;92970;-32
2022/11/26 07:50:29;;;;;;;63.60;21.90;;;4.20;99.90;;;;;;4955534;28;95409;-36
2022/11/26 07:52:54;;;;;;;87.60;26.65;;;4.20;99.90;;;;;;4956787;28;93581;-33
2022/11/26 07:55:20;;;;;;;43.58;19.88;;;4.30;99.90;;;;;;4955644;28;94370;-35
2022/11/26 07:57:46;;;;;;;35.95;20.50;;;4.30;99.90;;;;;;4955632;28;93647;-35
2022/11/26 08:00:12;;;;;;;47.78;22.45;;;4.30;99.90;;;;;;4955804;28;94904;-36
2022/11/26 08:02:37;;;;;;;34.72;20.90;;;4.30;99.90;;;;;;4955472;28;96579;-33
2022/11/26 08:05:03;;;;;;;32.58;21.02;;;4.40;99.90;;;;;;4955411;28;94603;-36
2022/11/26 08:07:29;;;;;;;51.58;23.63;;;4.40;99.90;;;;;;4955119;28;93315;-33
2022/11/26 08:09:55;;;;;;;46.00;24.35;;;4.40;99.90;;;;;;4955589;28;95817;-33
2022/11/26 08:12:20;;;;;;;89.63;27.08;;;4.40;99.90;;;;;;4956019;28;94206;-34
2022/11/26 08:14:46;;;;;;;38.55;19.98;;;4.50;99.90;;;;;;4956047;28;92268;-34
2022/11/26 08:17:11;;;;;;;86.30;26.75;;;4.50;99.90;;;;;;4955778;28;94940;-33
2022/11/26 08:19:37;;;;;;;48.53;25.55;;;4.60;99.90;;;;;;4955166;28;94435;-33
2022/11/26 08:22:02;;;;;;;50.20;23.67;;;4.60;99.90;;;;;;4956231;28;94719;-33
2022/11/26 08:24:29;;;;;;;36.05;21.83;;;4.60;99.90;;;;;;4955648;28;92967;-33
2022/11/26 08:26:58;;;;;;;56.72;27.23;;;4.60;99.90;;;;;;4955551;28;92996;-33
2022/11/26 08:29:24;;;;;;;67.57;28.65;;;4.70;99.90;;;;;;4954539;28;96030;-36
2022/11/26 08:31:50;;;;;;;49.70;24.42;;;4.70;99.90;;;;;;4955148;28;95824;-34
2022/11/26 08:34:16;;;;;;;61.60;27.08;;;4.80;99.90;;;;;;4955400;28;92785;-33
2022/11/26 08:36:41;;;;;;;38.30;23.05;;;4.80;99.90;;;;;;4956137;28;92596;-34
2022/11/26 08:39:10;;;;;;;34.83;21.83;;;4.80;99.90;;;;;;4955154;28;94657;-33
2022/11/26 08:41:36;;;;;;;41.53;25.95;;;4.90;99.90;;;;;;4954794;28;94341;-32
2022/11/26 08:44:02;;;;;;;38.95;26.42;;;4.90;99.90;;;;;;4955753;28;94343;-34
2022/11/26 08:46:27;;;;;;;55.40;24.90;;;4.90;99.90;;;;;;4960070;28;92553;-33
2022/11/26 08:48:57;;;;;;;53.33;27.63;;;5.00;99.90;;;;;;4955348;28;94209;-34
2022/11/26 08:51:23;;;;;;;51.00;29.02;;;5.00;99.90;;;;;;4955361;28;94359;-35
2022/11/26 08:53:49;;;;;;;57.13;31.42;;;5.10;99.90;;;;;;4955620;28;93559;-34
2022/11/26 08:56:14;;;;;;;43.65;28.92;;;5.10;99.90;;;;;;4954783;28;94381;-32
2022/11/26 08:58:43;;;;;;;53.33;32.22;;;5.10;99.90;;;;;;4956777;28;94568;-33
2022/11/26 09:01:18;;;;;;;45.10;29.25;;;5.20;99.90;;;;;;4959106;28;94653;-36
2022/11/26 09:03:47;;;;;;;45.65;25.90;;;5.30;99.90;;;;;;4959526;28;94514;-32
2022/11/26 09:06:13;;;;;;;55.47;30.40;;;5.30;99.90;;;;;;4957674;28;94356;-33
2022/11/26 09:11:25;;;;;;;50.42;29.05;;;5.40;99.90;;;;;;4958519;28;94705;-39
2022/11/26 09:13:52;;;;;;;54.80;29.75;;;5.50;99.90;;;;;;4958403;28;92311;-32
2022/11/26 09:16:18;;;;;;;62.35;30.80;;;5.50;99.90;;;;;;5004592;22;92744;-32
2022/11/26 09:18:44;;;;;;;46.60;28.90;;;5.60;99.90;;;;;;4956979;28;95788;-33
2022/11/26 09:21:09;;;;;;;61.03;30.75;;;5.60;99.90;;;;;;4956989;28;95929;-35
2022/11/26 09:23:36;;;;;;;59.90;30.83;;;5.70;99.90;;;;;;4959049;28;92990;-32
2022/11/26 09:26:01;;;;;;;42.20;30.00;;;5.70;99.90;;;;;;4958367;28;92764;-34
2022/11/26 09:28:27;;;;;;;54.47;30.60;;;5.70;99.90;;;;;;4958435;28;94870;-34
2022/11/26 09:31:00;;;;;;;48.15;31.20;;;5.70;99.90;;;;;;4957834;28;94979;-33
2022/11/26 09:33:27;;;;;;;61.15;32.05;;;5.80;99.90;;;;;;4958414;28;92912;-35
2022/11/26 09:35:53;;;;;;;60.15;36.83;;;5.80;99.90;;;;;;4958036;28;92826;-35
2022/11/26 09:38:19;;;;;;;65.28;33.25;;;5.80;99.90;;;;;;4957997;28;94708;-34
2022/11/26 09:41:14;;;;;;;68.97;34.15;;;5.90;99.90;;;;;;4955905;28;94579;-32
2022/11/26 09:44:07;;;;;;;56.63;33.78;;;5.90;99.90;;;;;;4955175;28;94760;-32
2022/11/26 09:46:55;;;;;;;59.25;35.22;;;6.00;99.90;;;;;;4945150;28;94799;-32
2022/11/26 09:49:21;;;;;;;54.65;34.20;;;6.00;99.90;;;;;;4956111;28;94749;-32
2022/11/26 09:51:51;;;;;;;59.33;34.33;;;6.10;99.90;;;;;;4955509;28;94570;-34
2022/11/26 09:54:22;;;;;;;67.20;37.38;;;6.10;99.90;;;;;;4957921;28;93390;-30
2022/11/26 09:56:53;;;;;;;60.47;38.30;;;6.20;99.90;;;;;;4965518;28;93432;-31
2022/11/26 09:59:21;;;;;;;66.60;38.25;;;6.20;99.90;;;;;;4956712;28;94664;-33
2022/11/26 10:01:46;;;;;;;65.65;39.88;;;6.20;99.90;;;;;;4958171;28;94344;-34
2022/11/26 10:04:25;;;;;;;62.83;39.20;;;6.20;99.90;;;;;;4956456;28;93558;-31
2022/11/26 10:07:18;;;;;;;73.13;41.15;;;6.30;99.90;;;;;;4955094;28;93206;-31
2022/11/26 10:10:00;;;;;;;67.70;39.20;;;6.30;99.90;;;;;;4954118;28;96201;-32
2022/11/26 10:12:33;;;;;;;76.80;41.10;;;6.40;99.90;;;;;;4954660;28;95760;-33
2022/11/26 10:15:13;;;;;;;59.90;40.70;;;6.50;99.90;;;;;;4955204;28;94590;-32
2022/11/26 10:17:52;;;;;;;79.63;41.45;;;6.50;99.90;;;;;;4955001;28;93037;-32
2022/11/26 10:20:36;;;;;;;67.43;41.58;;;6.50;99.90;;;;;;4953356;28;96072;-32
2022/11/26 10:23:17;;;;;;;68.07;41.50;;;6.50;99.90;;;;;;4953948;28;94538;-32
2022/11/26 10:26:00;;;;;;;77.47;43.17;;;6.60;99.90;;;;;;4955834;28;92662;-33
2022/11/26 10:28:29;;;;;;;65.88;44.83;;;6.60;99.90;;;;;;4949020;28;93021;-31
2022/11/26 10:30:58;;;;;;;79.63;45.08;;;6.70;99.90;;;;;;4958204;28;94921;-35
2022/11/26 10:33:29;;;;;;;70.78;43.35;;;6.70;99.90;;;;;;4952029;28;94404;-33
2022/11/26 10:35:54;;;;;;;73.75;45.70;;;6.80;99.90;;;;;;4954643;28;94261;-34
2022/11/26 10:38:20;;;;;;;86.68;46.42;;;6.80;99.90;;;;;;4954529;28;93573;-32
2022/11/26 10:40:45;;;;;;;77.88;47.90;;;6.90;99.90;;;;;;4954175;28;94833;-32
2022/11/26 10:43:18;;;;;;;72.10;45.72;;;6.90;99.90;;;;;;4954134;28;95825;-31
2022/11/26 10:45:48;;;;;;;72.90;46.05;;;6.90;99.90;;;;;;4954677;28;94660;-32
2022/11/26 10:48:18;;;;;;;94.10;50.10;;;6.90;99.90;;;;;;4954491;28;92148;-32
2022/11/26 10:51:15;;;;;;;88.30;46.85;;;7.00;99.90;;;;;;4953992;28;94913;-32
2022/11/26 10:54:09;;;;;;;85.15;47.13;;;7.00;99.90;;;;;;4945382;28;93358;-32
2022/11/26 10:56:41;;;;;;;86.03;47.40;;;7.10;99.90;;;;;;4953793;28;94140;-32
2022/11/26 10:59:27;;;;;;;86.68;49.15;;;7.20;99.90;;;;;;4954860;28;93310;-31
2022/11/26 11:01:54;;;;;;;75.13;45.80;;;7.20;99.90;;;;;;4959074;28;95914;-34
2022/11/26 11:04:31;;;;;;;85.18;48.70;;;7.30;99.90;;;;;;4958437;28;95086;-36
2022/11/26 11:06:57;;;;;;;79.57;47.97;;;7.30;99.90;;;;;;4942957;28;92638;-33
2022/11/26 11:09:34;;;;;;;76.00;45.90;;;7.30;99.90;;;;;;4954441;28;93516;-32
2022/11/26 11:12:19;;;;;;;79.70;48.17;;;7.40;99.90;;;;;;4940353;28;94800;-33
2022/11/26 11:14:45;;;;;;;81.90;47.25;;;7.40;99.90;;;;;;4954902;28;95417;-34
2022/11/26 11:17:35;;;;;;;83.78;48.03;;;7.40;99.90;;;;;;4955693;28;93028;-31
2022/11/26 11:20:39;;;;;;;83.45;45.50;;;7.40;99.90;;;;;;4955662;28;91801;-37
2022/11/26 11:23:10;;;;;;;84.78;49.65;;;7.50;99.90;;;;;;4930384;28;94685;-36
2022/11/26 11:25:40;;;;;;;76.93;45.90;;;7.50;99.90;;;;;;4953978;28;94723;-33
2022/11/26 11:28:11;;;;;;;70.50;43.80;;;7.50;99.90;;;;;;4954188;28;94370;-34
2022/11/26 11:30:39;;;;;;;69.00;45.25;;;7.50;99.90;;;;;;4950607;28;94548;-36
2022/11/26 11:33:24;;;;;;;73.15;46.58;;;7.60;99.90;;;;;;4952779;28;95853;-35
2022/11/26 11:36:12;;;;;;;74.80;45.20;;;7.60;99.90;;;;;;4953327;28;94721;-36
2022/11/26 11:38:51;;;;;;;70.77;43.43;;;7.60;99.90;;;;;;4953498;28;93352;-35
2022/11/26 11:41:40;;;;;;;71.53;42.95;;;7.60;99.90;;;;;;4953686;28;94290;-33
2022/11/26 11:44:16;;;;;;;70.22;41.70;;;7.70;99.90;;;;;;4953730;28;94660;-36
2022/11/26 11:47:05;;;;;;;63.85;39.92;;;7.70;99.90;;;;;;4953969;28;94758;-34
2022/11/26 11:49:38;;;;;;;64.70;42.15;;;7.80;99.90;;;;;;4924646;28;94019;-34
2022/11/26 11:52:29;;;;;;;70.70;41.38;;;7.70;99.90;;;;;;4952965;28;93270;-36
2022/11/26 11:55:27;;;;;;;67.68;42.72;;;7.80;99.90;;;;;;4926436;28;95696;-35
2022/11/26 11:58:21;;;;;;;62.53;43.33;;;7.80;99.90;;;;;;4924229;28;95526;-35
2022/11/26 12:00:58;;;;;;;63.65;42.20;;;7.80;99.90;;;;;;4924449;28;93168;-35
2022/11/26 12:03:33;;;;;;;74.50;44.23;;;7.80;99.90;;;;;;4953206;28;94469;-33
2022/11/26 12:06:30;;;;;;;75.03;44.80;;;7.90;99.90;;;;;;4954146;28;94814;-35
2022/11/26 12:08:55;;;;;;;62.00;43.28;;;7.90;99.90;;;;;;4944154;28;94659;-34
2022/11/26 12:11:36;;;;;;;63.78;39.45;;;7.90;99.90;;;;;;4953097;28;92067;-33
2022/11/26 12:14:11;;;;;;;62.97;39.83;;;8.00;99.90;;;;;;4953921;28;92801;-35
2022/11/26 12:16:40;;;;;;;65.00;38.83;;;8.00;99.90;;;;;;4952778;28;94837;-33
2022/11/26 12:19:32;;;;;;;55.38;38.92;;;8.00;99.90;;;;;;4952693;28;94799;-35
2022/11/26 12:22:21;;;;;;;57.20;37.42;;;8.10;99.90;;;;;;4952035;28;94531;-35
2022/11/26 12:24:51;;;;;;;59.75;36.70;;;8.10;99.90;;;;;;4951873;28;93809;-34
2022/11/26 12:27:25;;;;;;;57.90;37.47;;;8.20;99.90;;;;;;4953308;28;94738;-32
2022/11/26 12:30:05;;;;;;;54.22;36.95;;;8.10;99.90;;;;;;4953856;28;94263;-35
2022/11/26 12:32:52;;;;;;;55.97;35.42;;;8.20;99.90;;;;;;4958067;28;92401;-34
2022/11/26 12:35:32;;;;;;;55.65;37.50;;;8.20;99.90;;;;;;4956665;28;92992;-33
2022/11/26 12:38:25;;;;;;;58.05;36.58;;;8.20;99.90;;;;;;4956247;28;95079;-34
2022/11/26 12:41:03;;;;;;;65.85;37.13;;;8.20;99.90;;;;;;4949845;28;94931;-31
2022/11/26 12:43:57;;;;;;;64.17;37.50;;;8.20;99.90;;;;;;4956520;28;93432;-34
2022/11/26 12:46:37;;;;;;;51.55;35.30;;;8.20;99.90;;;;;;4942903;28;94281;-32
2022/11/26 12:49:41;;;;;;;54.92;33.22;;;8.20;99.90;;;;;;4955927;28;95766;-35
2022/11/26 12:52:12;;;;;;;54.83;37.42;;;8.30;99.90;;;;;;4922864;28;95507;-32
2022/11/26 12:54:42;;;;;;;57.33;33.55;;;8.30;99.90;;;;;;4954832;28;95085;-33
2022/11/26 12:57:22;;;;;;;66.47;36.63;;;8.30;99.90;;;;;;4957292;28;93706;-35